sensor_id;sensor_type;location;lat;lon;timestamp;temperature;humidity
10903;DHT22;5504;47.312;11.060;2022-08-04T00:02:23;20.10;91.70
10903;DHT22;5504;47.312;11.060;2022-08-04T00:05:05;20.20;92.00
10903;DHT22;5504;47.312;11.060;2022-08-04T00:10:18;20.20;92.40
10903;DHT22;5504;47.312;11.060;2022-08-04T00:12:49;20.10;92.40
10903;DHT22;5504;47.312;11.060;2022-08-04T00:15:16;20.00;92.40
10903;DHT22;5504;47.312;11.060;2022-08-04T00:17:53;20.00;92.60
10903;DHT22;5504;47.312;11.060;2022-08-04T00:20:20;20.00;92.60
10903;DHT22;5504;47.312;11.060;2022-08-04T00:22:47;20.00;92.60
10903;DHT22;5504;47.312;11.060;2022-08-04T00:25:14;20.00;92.40
10903;DHT22;5504;47.312;11.060;2022-08-04T00:27:39;20.00;92.40
10903;DHT22;5504;47.312;11.060;2022-08-04T00:30:06;20.00;92.40
10903;DHT22;5504;47.312;11.060;2022-08-04T00:32:32;20.00;92.30
10903;DHT22;5504;47.312;11.060;2022-08-04T00:34:58;19.90;92.20
10903;DHT22;5504;47.312;11.060;2022-08-04T00:37:25;19.90;92.20
10903;DHT22;5504;47.312;11.060;2022-08-04T00:39:53;19.80;92.50
10903;DHT22;5504;47.312;11.060;2022-08-04T00:42:28;19.90;92.60
10903;DHT22;5504;47.312;11.060;2022-08-04T00:50:58;19.70;92.90
10903;DHT22;5504;47.312;11.060;2022-08-04T00:53:51;19.80;92.90
10903;DHT22;5504;47.312;11.060;2022-08-04T01:09:25;19.70;93.30
10903;DHT22;5504;47.312;11.060;2022-08-04T01:12:13;19.70;93.10
10903;DHT22;5504;47.312;11.060;2022-08-04T01:20:06;19.60;93.40
10903;DHT22;5504;47.312;11.060;2022-08-04T01:25:02;19.40;93.40
10903;DHT22;5504;47.312;11.060;2022-08-04T01:30:13;19.40;93.80
10903;DHT22;5504;47.312;11.060;2022-08-04T01:33:02;19.30;93.80
10903;DHT22;5504;47.312;11.060;2022-08-04T01:35:34;19.40;93.70
10903;DHT22;5504;47.312;11.060;2022-08-04T01:38:11;19.50;93.70
10903;DHT22;5504;47.312;11.060;2022-08-04T01:40:40;19.50;93.60
10903;DHT22;5504;47.312;11.060;2022-08-04T01:43:09;19.50;93.50
10903;DHT22;5504;47.312;11.060;2022-08-04T01:45:36;19.50;93.50
10903;DHT22;5504;47.312;11.060;2022-08-04T01:48:02;19.60;93.60
10903;DHT22;5504;47.312;11.060;2022-08-04T01:50:35;19.40;93.70
10903;DHT22;5504;47.312;11.060;2022-08-04T01:53:02;19.30;93.60
10903;DHT22;5504;47.312;11.060;2022-08-04T01:55:28;19.30;93.80
10903;DHT22;5504;47.312;11.060;2022-08-04T01:57:57;19.20;93.70
10903;DHT22;5504;47.312;11.060;2022-08-04T02:00:26;19.00;94.00
10903;DHT22;5504;47.312;11.060;2022-08-04T02:02:53;19.00;94.30
10903;DHT22;5504;47.312;11.060;2022-08-04T02:05:22;19.10;94.40
10903;DHT22;5504;47.312;11.060;2022-08-04T02:11:48;19.20;94.20
10903;DHT22;5504;47.312;11.060;2022-08-04T02:16:44;19.20;94.20
10903;DHT22;5504;47.312;11.060;2022-08-04T02:21:55;19.10;94.30
10903;DHT22;5504;47.312;11.060;2022-08-04T02:24:24;19.10;94.30
10903;DHT22;5504;47.312;11.060;2022-08-04T02:26:52;19.00;94.30
10903;DHT22;5504;47.312;11.060;2022-08-04T02:29:49;19.00;94.30
10903;DHT22;5504;47.312;11.060;2022-08-04T02:32:25;19.00;94.40
10903;DHT22;5504;47.312;11.060;2022-08-04T02:35:06;19.00;94.60
10903;DHT22;5504;47.312;11.060;2022-08-04T02:37:33;19.00;94.70
10903;DHT22;5504;47.312;11.060;2022-08-04T02:40:02;19.00;94.70
10903;DHT22;5504;47.312;11.060;2022-08-04T02:42:29;18.90;94.70
10903;DHT22;5504;47.312;11.060;2022-08-04T02:44:57;18.90;94.70
10903;DHT22;5504;47.312;11.060;2022-08-04T02:47:25;18.90;94.70
10903;DHT22;5504;47.312;11.060;2022-08-04T02:49:52;18.90;94.70
10903;DHT22;5504;47.312;11.060;2022-08-04T02:52:19;18.80;94.70
10903;DHT22;5504;47.312;11.060;2022-08-04T02:54:48;18.80;94.40
10903;DHT22;5504;47.312;11.060;2022-08-04T02:57:16;18.70;94.60
10903;DHT22;5504;47.312;11.060;2022-08-04T03:02:29;18.70;94.80
10903;DHT22;5504;47.312;11.060;2022-08-04T03:05:02;18.70;95.10
10903;DHT22;5504;47.312;11.060;2022-08-04T03:07:57;18.70;95.00
10903;DHT22;5504;47.312;11.060;2022-08-04T03:46:13;18.40;95.60
10903;DHT22;5504;47.312;11.060;2022-08-04T04:00:46;18.20;96.10
10903;DHT22;5504;47.312;11.060;2022-08-04T04:06:16;18.20;96.30
10903;DHT22;5504;47.312;11.060;2022-08-04T04:47:58;18.30;96.60
10903;DHT22;5504;47.312;11.060;2022-08-04T04:53:35;18.30;96.50
10903;DHT22;5504;47.312;11.060;2022-08-04T04:56:16;18.40;96.50
10903;DHT22;5504;47.312;11.060;2022-08-04T04:58:42;18.40;96.80
10903;DHT22;5504;47.312;11.060;2022-08-04T05:06:53;18.50;97.10
10903;DHT22;5504;47.312;11.060;2022-08-04T05:09:56;18.60;97.00
10903;DHT22;5504;47.312;11.060;2022-08-04T05:12:56;18.70;96.80
10903;DHT22;5504;47.312;11.060;2022-08-04T05:15:33;18.80;97.00
10903;DHT22;5504;47.312;11.060;2022-08-04T05:18:01;18.90;96.80
10903;DHT22;5504;47.312;11.060;2022-08-04T05:20:41;19.00;96.40
10903;DHT22;5504;47.312;11.060;2022-08-04T05:23:17;19.20;96.30
10903;DHT22;5504;47.312;11.060;2022-08-04T05:25:58;19.30;96.00
10903;DHT22;5504;47.312;11.060;2022-08-04T05:28:44;19.40;95.90
10903;DHT22;5504;47.312;11.060;2022-08-04T05:31:20;19.60;95.60
10903;DHT22;5504;47.312;11.060;2022-08-04T05:33:57;19.80;95.60
10903;DHT22;5504;47.312;11.060;2022-08-04T05:36:33;19.80;95.20
10903;DHT22;5504;47.312;11.060;2022-08-04T05:39:01;20.00;95.10
10903;DHT22;5504;47.312;11.060;2022-08-04T05:41:28;20.20;95.00
10903;DHT22;5504;47.312;11.060;2022-08-04T05:43:55;20.20;95.00
10903;DHT22;5504;47.312;11.060;2022-08-04T05:46:22;20.30;95.00
10903;DHT22;5504;47.312;11.060;2022-08-04T05:48:50;20.30;94.80
10903;DHT22;5504;47.312;11.060;2022-08-04T05:51:16;20.40;94.90
10903;DHT22;5504;47.312;11.060;2022-08-04T05:53:43;20.60;94.20
10903;DHT22;5504;47.312;11.060;2022-08-04T05:56:13;20.70;94.00
10903;DHT22;5504;47.312;11.060;2022-08-04T05:58:40;21.00;94.00
10903;DHT22;5504;47.312;11.060;2022-08-04T06:01:08;21.20;93.90
10903;DHT22;5504;47.312;11.060;2022-08-04T06:03:35;21.50;93.70
10903;DHT22;5504;47.312;11.060;2022-08-04T06:06:03;21.80;93.60
10903;DHT22;5504;47.312;11.060;2022-08-04T06:08:29;22.10;92.90
10903;DHT22;5504;47.312;11.060;2022-08-04T06:10:58;22.50;92.80
10903;DHT22;5504;47.312;11.060;2022-08-04T06:13:30;22.80;91.90
10903;DHT22;5504;47.312;11.060;2022-08-04T06:15:59;23.20;91.70
10903;DHT22;5504;47.312;11.060;2022-08-04T06:18:28;23.70;90.90
10903;DHT22;5504;47.312;11.060;2022-08-04T06:20:55;23.90;89.40
10903;DHT22;5504;47.312;11.060;2022-08-04T06:23:25;24.00;89.10
10903;DHT22;5504;47.312;11.060;2022-08-04T06:25:56;24.50;89.90
10903;DHT22;5504;47.312;11.060;2022-08-04T06:28:23;24.60;86.80
10903;DHT22;5504;47.312;11.060;2022-08-04T06:30:51;24.70;87.20
10903;DHT22;5504;47.312;11.060;2022-08-04T06:33:19;24.90;87.30
10903;DHT22;5504;47.312;11.060;2022-08-04T06:35:55;25.40;88.20
10903;DHT22;5504;47.312;11.060;2022-08-04T06:38:24;25.90;85.00
10903;DHT22;5504;47.312;11.060;2022-08-04T06:40:50;26.00;81.20
10903;DHT22;5504;47.312;11.060;2022-08-04T06:43:18;26.40;83.10
10903;DHT22;5504;47.312;11.060;2022-08-04T06:45:44;26.40;77.40
10903;DHT22;5504;47.312;11.060;2022-08-04T06:48:12;26.10;78.10
10903;DHT22;5504;47.312;11.060;2022-08-04T06:50:40;26.20;77.00
10903;DHT22;5504;47.312;11.060;2022-08-04T06:53:06;26.30;80.90
10903;DHT22;5504;47.312;11.060;2022-08-04T06:55:33;26.30;78.50
10903;DHT22;5504;47.312;11.060;2022-08-04T06:58:00;26.60;81.10
10903;DHT22;5504;47.312;11.060;2022-08-04T07:00:27;27.00;82.20
10903;DHT22;5504;47.312;11.060;2022-08-04T07:02:54;27.30;80.90
10903;DHT22;5504;47.312;11.060;2022-08-04T07:05:20;27.60;79.60
10903;DHT22;5504;47.312;11.060;2022-08-04T07:07:47;27.60;72.80
10903;DHT22;5504;47.312;11.060;2022-08-04T07:10:13;27.90;78.20
10903;DHT22;5504;47.312;11.060;2022-08-04T07:12:39;28.10;73.10
10903;DHT22;5504;47.312;11.060;2022-08-04T07:15:07;28.50;75.10
10903;DHT22;5504;47.312;11.060;2022-08-04T07:17:34;28.00;72.70
10903;DHT22;5504;47.312;11.060;2022-08-04T07:20:01;28.10;76.70
10903;DHT22;5504;47.312;11.060;2022-08-04T07:22:28;27.80;73.90
10903;DHT22;5504;47.312;11.060;2022-08-04T07:24:55;28.20;78.00
10903;DHT22;5504;47.312;11.060;2022-08-04T07:27:21;28.40;70.50
10903;DHT22;5504;47.312;11.060;2022-08-04T07:29:47;28.90;75.50
10903;DHT22;5504;47.312;11.060;2022-08-04T07:32:13;29.70;74.40
10903;DHT22;5504;47.312;11.060;2022-08-04T07:34:41;29.60;68.60
10903;DHT22;5504;47.312;11.060;2022-08-04T07:37:07;30.10;72.70
10903;DHT22;5504;47.312;11.060;2022-08-04T07:39:33;30.70;71.90
10903;DHT22;5504;47.312;11.060;2022-08-04T07:42:02;29.70;64.20
10903;DHT22;5504;47.312;11.060;2022-08-04T07:44:29;29.40;68.90
10903;DHT22;5504;47.312;11.060;2022-08-04T07:46:56;29.60;68.40
10903;DHT22;5504;47.312;11.060;2022-08-04T07:49:22;30.10;69.80
10903;DHT22;5504;47.312;11.060;2022-08-04T07:51:50;30.80;70.60
10903;DHT22;5504;47.312;11.060;2022-08-04T07:54:16;31.50;69.40
10903;DHT22;5504;47.312;11.060;2022-08-04T07:56:42;31.70;66.10
10903;DHT22;5504;47.312;11.060;2022-08-04T07:59:08;32.10;65.70
10903;DHT22;5504;47.312;11.060;2022-08-04T08:01:35;32.40;62.80
10903;DHT22;5504;47.312;11.060;2022-08-04T08:04:04;32.40;65.00
10903;DHT22;5504;47.312;11.060;2022-08-04T08:06:29;32.60;61.80
10903;DHT22;5504;47.312;11.060;2022-08-04T08:08:56;32.50;64.80
10903;DHT22;5504;47.312;11.060;2022-08-04T08:11:22;31.60;61.70
10903;DHT22;5504;47.312;11.060;2022-08-04T08:13:48;31.90;65.00
10903;DHT22;5504;47.312;11.060;2022-08-04T08:16:14;32.00;63.60
10903;DHT22;5504;47.312;11.060;2022-08-04T08:18:40;31.20;59.80
10903;DHT22;5504;47.312;11.060;2022-08-04T08:21:06;31.50;60.90
10903;DHT22;5504;47.312;11.060;2022-08-04T08:23:34;32.30;64.50
10903;DHT22;5504;47.312;11.060;2022-08-04T08:26:00;32.60;60.50
10903;DHT22;5504;47.312;11.060;2022-08-04T08:28:26;32.90;62.10
10903;DHT22;5504;47.312;11.060;2022-08-04T08:30:52;32.20;55.20
10903;DHT22;5504;47.312;11.060;2022-08-04T08:33:18;32.10;60.00
10903;DHT22;5504;47.312;11.060;2022-08-04T09:11:32;35.00;54.30
10903;DHT22;5504;47.312;11.060;2022-08-04T09:14:23;35.00;56.60
10903;DHT22;5504;47.312;11.060;2022-08-04T09:16:59;34.70;54.50
10903;DHT22;5504;47.312;11.060;2022-08-04T09:19:34;34.40;56.30
10903;DHT22;5504;47.312;11.060;2022-08-04T09:22:17;34.80;55.10
10903;DHT22;5504;47.312;11.060;2022-08-04T09:30:14;34.60;59.20
10903;DHT22;5504;47.312;11.060;2022-08-04T09:35:58;34.00;52.70
10903;DHT22;5504;47.312;11.060;2022-08-04T09:41:10;35.50;56.40
10903;DHT22;5504;47.312;11.060;2022-08-04T09:46:24;36.40;54.80
10903;DHT22;5504;47.312;11.060;2022-08-04T09:54:22;36.60;54.60
10903;DHT22;5504;47.312;11.060;2022-08-04T10:00:04;36.60;53.30
10903;DHT22;5504;47.312;11.060;2022-08-04T10:02:35;35.20;53.10
10903;DHT22;5504;47.312;11.060;2022-08-04T10:05:08;35.30;56.60
10903;DHT22;5504;47.312;11.060;2022-08-04T10:16:52;37.30;52.70
10903;DHT22;5504;47.312;11.060;2022-08-04T10:19:28;37.40;53.60
10903;DHT22;5504;47.312;11.060;2022-08-04T10:27:40;38.10;52.60
10903;DHT22;5504;47.312;11.060;2022-08-04T10:30:08;38.40;50.90
10903;DHT22;5504;47.312;11.060;2022-08-04T10:32:44;38.60;51.10
10903;DHT22;5504;47.312;11.060;2022-08-04T10:35:16;38.10;46.70
10903;DHT22;5504;47.312;11.060;2022-08-04T10:40:33;37.90;47.60
10903;DHT22;5504;47.312;11.060;2022-08-04T10:46:15;36.20;48.30
10903;DHT22;5504;47.312;11.060;2022-08-04T10:48:56;36.50;55.90
10903;DHT22;5504;47.312;11.060;2022-08-04T10:51:34;37.20;52.50
10903;DHT22;5504;47.312;11.060;2022-08-04T10:54:07;36.80;49.40
10903;DHT22;5504;47.312;11.060;2022-08-04T10:56:39;35.50;50.90
10903;DHT22;5504;47.312;11.060;2022-08-04T10:59:23;36.00;53.00
10903;DHT22;5504;47.312;11.060;2022-08-04T11:01:58;36.60;54.10
10903;DHT22;5504;47.312;11.060;2022-08-04T11:07:36;37.20;53.90
10903;DHT22;5504;47.312;11.060;2022-08-04T11:10:05;36.50;47.20
10903;DHT22;5504;47.312;11.060;2022-08-04T11:12:33;36.30;49.20
10903;DHT22;5504;47.312;11.060;2022-08-04T11:15:12;36.60;51.50
10903;DHT22;5504;47.312;11.060;2022-08-04T11:17:55;36.90;53.50
10903;DHT22;5504;47.312;11.060;2022-08-04T11:20:37;37.00;50.70
10903;DHT22;5504;47.312;11.060;2022-08-04T11:23:14;37.10;49.40
10903;DHT22;5504;47.312;11.060;2022-08-04T11:26:05;37.30;49.60
10903;DHT22;5504;47.312;11.060;2022-08-04T11:31:34;37.40;46.90
10903;DHT22;5504;47.312;11.060;2022-08-04T11:39:36;36.00;47.10
10903;DHT22;5504;47.312;11.060;2022-08-04T11:42:28;36.50;49.20
10903;DHT22;5504;47.312;11.060;2022-08-04T11:45:03;37.40;50.50
10903;DHT22;5504;47.312;11.060;2022-08-04T11:50:22;38.40;46.40
10903;DHT22;5504;47.312;11.060;2022-08-04T11:52:53;38.70;48.80
10903;DHT22;5504;47.312;11.060;2022-08-04T11:55:21;38.60;45.50
10903;DHT22;5504;47.312;11.060;2022-08-04T11:57:50;38.60;48.20
10903;DHT22;5504;47.312;11.060;2022-08-04T12:00:17;38.40;42.70
10903;DHT22;5504;47.312;11.060;2022-08-04T12:17:02;39.00;41.30
10903;DHT22;5504;47.312;11.060;2022-08-04T12:19:40;39.20;48.20
10903;DHT22;5504;47.312;11.060;2022-08-04T12:22:22;38.70;40.10
10903;DHT22;5504;47.312;11.060;2022-08-04T12:24:52;38.70;44.30
10903;DHT22;5504;47.312;11.060;2022-08-04T12:27:48;38.60;38.40
10903;DHT22;5504;47.312;11.060;2022-08-04T12:30:18;39.20;46.70
10903;DHT22;5504;47.312;11.060;2022-08-04T12:32:47;38.70;40.40
10903;DHT22;5504;47.312;11.060;2022-08-04T12:35:39;39.10;44.40
10903;DHT22;5504;47.312;11.060;2022-08-04T12:38:11;39.30;42.50
10903;DHT22;5504;47.312;11.060;2022-08-04T12:43:19;39.10;42.20
10903;DHT22;5504;47.312;11.060;2022-08-04T12:45:52;38.80;42.60
10903;DHT22;5504;47.312;11.060;2022-08-04T12:48:21;38.50;42.70
10903;DHT22;5504;47.312;11.060;2022-08-04T12:50:50;38.30;43.40
10903;DHT22;5504;47.312;11.060;2022-08-04T12:53:18;38.10;43.20
10903;DHT22;5504;47.312;11.060;2022-08-04T12:55:47;38.10;44.50
10903;DHT22;5504;47.312;11.060;2022-08-04T12:58:17;38.10;41.70
10903;DHT22;5504;47.312;11.060;2022-08-04T13:00:56;38.20;43.30
10903;DHT22;5504;47.312;11.060;2022-08-04T13:03:38;38.20;42.50
10903;DHT22;5504;47.312;11.060;2022-08-04T13:06:06;36.90;38.80
10903;DHT22;5504;47.312;11.060;2022-08-04T13:08:37;35.90;38.00
10903;DHT22;5504;47.312;11.060;2022-08-04T13:11:03;36.50;43.60
10903;DHT22;5504;47.312;11.060;2022-08-04T13:13:33;37.20;44.10
10903;DHT22;5504;47.312;11.060;2022-08-04T13:16:06;37.60;46.60
10903;DHT22;5504;47.312;11.060;2022-08-04T13:18:35;38.00;45.80
10903;DHT22;5504;47.312;11.060;2022-08-04T13:21:30;37.80;38.70
10903;DHT22;5504;47.312;11.060;2022-08-04T13:24:00;37.80;41.00
10903;DHT22;5504;47.312;11.060;2022-08-04T13:26:27;37.00;38.70
10903;DHT22;5504;47.312;11.060;2022-08-04T13:28:54;37.40;44.00
10903;DHT22;5504;47.312;11.060;2022-08-04T13:31:23;36.90;40.60
10903;DHT22;5504;47.312;11.060;2022-08-04T13:33:53;37.30;40.00
10903;DHT22;5504;47.312;11.060;2022-08-04T13:36:24;37.40;41.70
10903;DHT22;5504;47.312;11.060;2022-08-04T13:38:54;37.10;41.80
10903;DHT22;5504;47.312;11.060;2022-08-04T13:41:21;37.10;40.60
10903;DHT22;5504;47.312;11.060;2022-08-04T13:43:51;37.30;42.50
10903;DHT22;5504;47.312;11.060;2022-08-04T13:46:30;37.60;43.80
10903;DHT22;5504;47.312;11.060;2022-08-04T13:48:58;38.00;46.10
10903;DHT22;5504;47.312;11.060;2022-08-04T13:51:27;37.80;43.40
10903;DHT22;5504;47.312;11.060;2022-08-04T13:53:56;37.30;41.50
10903;DHT22;5504;47.312;11.060;2022-08-04T13:56:23;36.50;41.50
10903;DHT22;5504;47.312;11.060;2022-08-04T13:58:55;36.60;42.40
10903;DHT22;5504;47.312;11.060;2022-08-04T14:01:25;36.20;40.90
10903;DHT22;5504;47.312;11.060;2022-08-04T14:11:29;37.10;43.00
10903;DHT22;5504;47.312;11.060;2022-08-04T14:13:56;37.40;45.20
10903;DHT22;5504;47.312;11.060;2022-08-04T14:16:22;36.90;39.60
10903;DHT22;5504;47.312;11.060;2022-08-04T14:18:57;36.80;44.30
10903;DHT22;5504;47.312;11.060;2022-08-04T14:21:23;36.30;41.40
10903;DHT22;5504;47.312;11.060;2022-08-04T14:23:54;36.30;42.20
10903;DHT22;5504;47.312;11.060;2022-08-04T14:26:24;36.70;43.10
10903;DHT22;5504;47.312;11.060;2022-08-04T14:28:54;36.70;44.50
10903;DHT22;5504;47.312;11.060;2022-08-04T14:31:24;35.80;41.90
10903;DHT22;5504;47.312;11.060;2022-08-04T14:33:52;36.10;43.20
10903;DHT22;5504;47.312;11.060;2022-08-04T14:36:18;36.50;45.30
10903;DHT22;5504;47.312;11.060;2022-08-04T14:38:54;36.60;44.10
10903;DHT22;5504;47.312;11.060;2022-08-04T14:41:25;36.60;43.10
10903;DHT22;5504;47.312;11.060;2022-08-04T14:43:56;36.50;44.60
10903;DHT22;5504;47.312;11.060;2022-08-04T14:46:23;36.30;43.50
10903;DHT22;5504;47.312;11.060;2022-08-04T14:51:26;36.10;44.20
10903;DHT22;5504;47.312;11.060;2022-08-04T14:53:52;35.80;44.80
10903;DHT22;5504;47.312;11.060;2022-08-04T14:56:19;35.60;43.50
10903;DHT22;5504;47.312;11.060;2022-08-04T14:58:44;35.70;45.10
10903;DHT22;5504;47.312;11.060;2022-08-04T15:01:12;35.80;46.30
10903;DHT22;5504;47.312;11.060;2022-08-04T15:03:43;35.60;45.60
10903;DHT22;5504;47.312;11.060;2022-08-04T15:06:09;35.60;46.60
10903;DHT22;5504;47.312;11.060;2022-08-04T15:08:35;35.40;46.40
10903;DHT22;5504;47.312;11.060;2022-08-04T15:11:02;35.40;46.30
10903;DHT22;5504;47.312;11.060;2022-08-04T15:13:29;35.10;45.10
10903;DHT22;5504;47.312;11.060;2022-08-04T15:15:56;35.20;46.70
10903;DHT22;5504;47.312;11.060;2022-08-04T15:18:22;35.20;47.10
10903;DHT22;5504;47.312;11.060;2022-08-04T15:20:50;35.00;44.90
10903;DHT22;5504;47.312;11.060;2022-08-04T15:23:16;35.10;47.20
10903;DHT22;5504;47.312;11.060;2022-08-04T15:25:48;35.00;47.00
10903;DHT22;5504;47.312;11.060;2022-08-04T15:28:18;35.00;48.00
10903;DHT22;5504;47.312;11.060;2022-08-04T15:30:48;35.10;48.40
10903;DHT22;5504;47.312;11.060;2022-08-04T15:33:17;35.00;46.30
10903;DHT22;5504;47.312;11.060;2022-08-04T15:35:51;34.90;47.60
10903;DHT22;5504;47.312;11.060;2022-08-04T15:38:34;34.60;46.70
10903;DHT22;5504;47.312;11.060;2022-08-04T15:41:19;34.40;48.00
10903;DHT22;5504;47.312;11.060;2022-08-04T15:44:31;34.30;47.40
10903;DHT22;5504;47.312;11.060;2022-08-04T15:49:29;34.00;47.50
10903;DHT22;5504;47.312;11.060;2022-08-04T15:52:03;33.90;47.20
10903;DHT22;5504;47.312;11.060;2022-08-04T15:54:29;33.90;48.40
10903;DHT22;5504;47.312;11.060;2022-08-04T15:56:55;33.80;47.80
10903;DHT22;5504;47.312;11.060;2022-08-04T15:59:55;33.90;49.50
10903;DHT22;5504;47.312;11.060;2022-08-04T16:07:57;33.90;47.80
10903;DHT22;5504;47.312;11.060;2022-08-04T16:13:02;33.50;48.30
10903;DHT22;5504;47.312;11.060;2022-08-04T16:21:05;33.50;51.90
10903;DHT22;5504;47.312;11.060;2022-08-04T16:29:47;33.00;49.40
10903;DHT22;5504;47.312;11.060;2022-08-04T16:37:03;32.90;52.30
10903;DHT22;5504;47.312;11.060;2022-08-04T16:39:29;32.80;53.00
10903;DHT22;5504;47.312;11.060;2022-08-04T16:41:56;32.20;49.70
10903;DHT22;5504;47.312;11.060;2022-08-04T16:44:32;32.20;50.30
10903;DHT22;5504;47.312;11.060;2022-08-04T16:47:00;32.20;50.10
10903;DHT22;5504;47.312;11.060;2022-08-04T16:49:28;32.20;54.50
10903;DHT22;5504;47.312;11.060;2022-08-04T16:52:00;32.20;51.70
10903;DHT22;5504;47.312;11.060;2022-08-04T16:54:33;32.10;53.30
10903;DHT22;5504;47.312;11.060;2022-08-04T16:56:59;32.00;52.90
10903;DHT22;5504;47.312;11.060;2022-08-04T16:59:25;31.80;51.90
10903;DHT22;5504;47.312;11.060;2022-08-04T17:01:52;31.80;52.20
10903;DHT22;5504;47.312;11.060;2022-08-04T17:04:29;31.70;53.30
10903;DHT22;5504;47.312;11.060;2022-08-04T17:07:03;31.70;53.80
10903;DHT22;5504;47.312;11.060;2022-08-04T17:09:30;31.70;53.70
10903;DHT22;5504;47.312;11.060;2022-08-04T17:11:56;31.50;55.00
10903;DHT22;5504;47.312;11.060;2022-08-04T17:14:24;31.40;55.50
10903;DHT22;5504;47.312;11.060;2022-08-04T17:16:53;31.30;57.00
10903;DHT22;5504;47.312;11.060;2022-08-04T17:19:19;31.10;55.20
10903;DHT22;5504;47.312;11.060;2022-08-04T17:21:45;31.10;54.60
10903;DHT22;5504;47.312;11.060;2022-08-04T17:24:11;31.10;55.10
10903;DHT22;5504;47.312;11.060;2022-08-04T17:26:38;31.00;56.10
10903;DHT22;5504;47.312;11.060;2022-08-04T17:29:04;30.90;55.60
10903;DHT22;5504;47.312;11.060;2022-08-04T17:31:32;30.90;54.90
10903;DHT22;5504;47.312;11.060;2022-08-04T17:34:02;30.90;55.40
10903;DHT22;5504;47.312;11.060;2022-08-04T17:36:33;30.80;56.10
10903;DHT22;5504;47.312;11.060;2022-08-04T17:39:09;30.80;56.80
10903;DHT22;5504;47.312;11.060;2022-08-04T17:41:36;30.70;56.50
10903;DHT22;5504;47.312;11.060;2022-08-04T17:44:03;30.60;56.50
10903;DHT22;5504;47.312;11.060;2022-08-04T17:46:34;30.60;57.60
10903;DHT22;5504;47.312;11.060;2022-08-04T17:54:15;30.20;59.10
10903;DHT22;5504;47.312;11.060;2022-08-04T17:56:46;30.10;58.00
10903;DHT22;5504;47.312;11.060;2022-08-04T18:02:05;30.00;56.70
10903;DHT22;5504;47.312;11.060;2022-08-04T18:07:17;29.90;58.50
10903;DHT22;5504;47.312;11.060;2022-08-04T18:12:30;29.80;58.10
10903;DHT22;5504;47.312;11.060;2022-08-04T18:15:01;29.50;57.20
10903;DHT22;5504;47.312;11.060;2022-08-04T18:17:38;29.60;57.70
10903;DHT22;5504;47.312;11.060;2022-08-04T18:20:11;29.50;55.60
10903;DHT22;5504;47.312;11.060;2022-08-04T18:22:39;29.60;56.00
10903;DHT22;5504;47.312;11.060;2022-08-04T18:25:07;29.60;57.00
10903;DHT22;5504;47.312;11.060;2022-08-04T18:27:33;29.50;58.40
10903;DHT22;5504;47.312;11.060;2022-08-04T18:29:59;29.40;58.60
10903;DHT22;5504;47.312;11.060;2022-08-04T18:32:26;29.30;58.40
10903;DHT22;5504;47.312;11.060;2022-08-04T18:34:53;29.30;59.10
10903;DHT22;5504;47.312;11.060;2022-08-04T18:37:19;29.10;59.00
10903;DHT22;5504;47.312;11.060;2022-08-04T18:39:45;28.90;59.20
10903;DHT22;5504;47.312;11.060;2022-08-04T18:42:11;28.80;59.40
10903;DHT22;5504;47.312;11.060;2022-08-04T18:44:37;28.70;59.80
10903;DHT22;5504;47.312;11.060;2022-08-04T18:47:03;28.60;59.60
10903;DHT22;5504;47.312;11.060;2022-08-04T18:49:29;28.50;59.90
10903;DHT22;5504;47.312;11.060;2022-08-04T18:51:55;28.30;60.70
10903;DHT22;5504;47.312;11.060;2022-08-04T18:54:22;28.30;62.20
10903;DHT22;5504;47.312;11.060;2022-08-04T18:56:52;28.20;62.40
10903;DHT22;5504;47.312;11.060;2022-08-04T18:59:19;28.00;61.10
10903;DHT22;5504;47.312;11.060;2022-08-04T19:01:45;27.90;62.40
10903;DHT22;5504;47.312;11.060;2022-08-04T19:04:11;27.80;62.90
10903;DHT22;5504;47.312;11.060;2022-08-04T19:06:37;27.60;63.10
10903;DHT22;5504;47.312;11.060;2022-08-04T19:09:04;27.40;64.10
10903;DHT22;5504;47.312;11.060;2022-08-04T19:11:31;27.40;65.10
10903;DHT22;5504;47.312;11.060;2022-08-04T19:14:01;27.30;64.10
10903;DHT22;5504;47.312;11.060;2022-08-04T19:16:28;27.40;64.80
10903;DHT22;5504;47.312;11.060;2022-08-04T19:18:55;27.30;65.50
10903;DHT22;5504;47.312;11.060;2022-08-04T19:21:21;27.30;66.00
10903;DHT22;5504;47.312;11.060;2022-08-04T19:23:47;27.20;67.00
10903;DHT22;5504;47.312;11.060;2022-08-04T19:26:13;27.10;67.70
10903;DHT22;5504;47.312;11.060;2022-08-04T19:28:38;27.00;68.00
10903;DHT22;5504;47.312;11.060;2022-08-04T19:31:06;26.80;68.70
10903;DHT22;5504;47.312;11.060;2022-08-04T19:33:32;26.70;68.70
10903;DHT22;5504;47.312;11.060;2022-08-04T19:35:58;26.70;68.90
10903;DHT22;5504;47.312;11.060;2022-08-04T19:38:24;26.60;67.30
10903;DHT22;5504;47.312;11.060;2022-08-04T19:40:49;26.40;67.80
10903;DHT22;5504;47.312;11.060;2022-08-04T19:43:15;26.40;69.70
10903;DHT22;5504;47.312;11.060;2022-08-04T19:45:41;26.30;70.00
10903;DHT22;5504;47.312;11.060;2022-08-04T19:48:07;26.20;69.90
10903;DHT22;5504;47.312;11.060;2022-08-04T19:50:33;26.20;70.20
10903;DHT22;5504;47.312;11.060;2022-08-04T19:52:59;26.10;70.30
10903;DHT22;5504;47.312;11.060;2022-08-04T19:55:25;26.10;70.90
10903;DHT22;5504;47.312;11.060;2022-08-04T19:57:51;26.00;70.20
10903;DHT22;5504;47.312;11.060;2022-08-04T20:00:18;26.00;71.70
10903;DHT22;5504;47.312;11.060;2022-08-04T20:02:45;26.00;70.90
10903;DHT22;5504;47.312;11.060;2022-08-04T20:05:12;26.00;70.90
10903;DHT22;5504;47.312;11.060;2022-08-04T20:07:38;26.00;71.00
10903;DHT22;5504;47.312;11.060;2022-08-04T20:10:05;26.00;71.30
10903;DHT22;5504;47.312;11.060;2022-08-04T20:12:32;25.70;70.90
10903;DHT22;5504;47.312;11.060;2022-08-04T20:14:57;25.70;73.10
10903;DHT22;5504;47.312;11.060;2022-08-04T20:17:24;25.70;73.40
10903;DHT22;5504;47.312;11.060;2022-08-04T20:19:50;25.60;73.10
10903;DHT22;5504;47.312;11.060;2022-08-04T20:22:15;25.50;72.80
10903;DHT22;5504;47.312;11.060;2022-08-04T20:24:43;25.50;73.50
10903;DHT22;5504;47.312;11.060;2022-08-04T20:27:10;25.50;74.50
10903;DHT22;5504;47.312;11.060;2022-08-04T20:29:36;25.40;73.70
10903;DHT22;5504;47.312;11.060;2022-08-04T20:32:02;25.40;74.50
10903;DHT22;5504;47.312;11.060;2022-08-04T20:34:28;25.20;74.00
10903;DHT22;5504;47.312;11.060;2022-08-04T20:36:54;25.20;73.90
10903;DHT22;5504;47.312;11.060;2022-08-04T20:39:20;25.20;75.30
10903;DHT22;5504;47.312;11.060;2022-08-04T20:41:47;25.10;76.40
10903;DHT22;5504;47.312;11.060;2022-08-04T20:44:13;25.00;76.10
10903;DHT22;5504;47.312;11.060;2022-08-04T20:46:39;25.00;76.50
10903;DHT22;5504;47.312;11.060;2022-08-04T20:49:05;24.90;76.00
10903;DHT22;5504;47.312;11.060;2022-08-04T20:51:30;24.90;76.60
10903;DHT22;5504;47.312;11.060;2022-08-04T20:53:56;25.00;76.80